Time;durP1;ratioP1;P1;durP2;ratioP2;P2;SDS_P1;SDS_P2;PMS_P1;PMS_P2;Temp;Humidity;BMP_temperature;BMP_pressure;BME280_temperature;BME280_humidity;BME280_pressure;Samples;Min_cycle;Max_cycle;Signal;HPM_P1;HPM_P2
2022/01/26 00:07:26;;;;;;;43.40;18.95;;;;;;;3.59;64.17;100929.09;7685644;32;40084;-80
2022/01/26 00:11:42;;;;;;;40.97;18.83;;;;;;;3.82;63.32;100918.03;7685772;32;40785;-80
2022/01/26 00:16:02;;;;;;;35.75;18.12;;;;;;;3.81;63.00;100919.06;7685658;32;37949;-80
2022/01/26 00:20:26;;;;;;;36.50;18.52;;;;;;;3.94;62.55;100916.41;7685667;32;37740;-80
2022/01/26 00:25:07;;;;;;;40.70;18.60;;;;;;;3.95;62.42;100909.19;7685573;32;39380;-80
2022/01/26 00:29:28;;;;;;;38.13;17.98;;;;;;;4.09;62.31;100908.19;7685567;32;39894;-80
2022/01/26 00:38:38;;;;;;;39.17;17.62;;;;;;;3.67;63.29;100907.34;7685399;32;38255;-80
2022/01/26 00:42:59;;;;;;;34.72;17.15;;;;;;;3.81;63.26;100905.59;7685407;32;39268;-80
2022/01/26 00:47:15;;;;;;;38.38;17.67;;;;;;;3.86;62.89;100911.19;7685360;32;39758;-80
2022/01/26 00:51:31;;;;;;;35.40;18.08;;;;;;;3.69;62.57;100910.72;7685188;32;37914;-80
2022/01/26 00:55:48;;;;;;;35.55;17.83;;;;;;;3.72;62.46;100917.56;7685430;32;37241;-80
2022/01/26 01:00:08;;;;;;;33.85;17.67;;;;;;;3.86;61.51;100921.97;7685265;32;39364;-80
2022/01/26 01:04:24;;;;;;;35.65;17.37;;;;;;;3.41;62.38;100928.78;7684858;32;40803;-80
2022/01/26 01:08:41;;;;;;;34.95;17.77;;;;;;;3.37;62.77;100918.37;7685017;32;38469;-80
2022/01/26 01:12:59;;;;;;;35.08;18.55;;;;;;;3.06;64.32;100924.16;7685058;32;37964;-80
2022/01/26 01:17:23;;;;;;;37.28;18.05;;;;;;;3.00;65.14;100923.06;7659032;32;39311;-80
2022/01/26 01:26:37;;;;;;;32.20;16.87;;;;;;;3.45;63.19;100916.56;7684894;32;37537;-80
2022/01/26 01:30:51;;;;;;;34.55;17.35;;;;;;;3.29;63.73;100920.38;7684762;32;37988;-80
2022/01/26 01:35:10;;;;;;;36.70;17.12;;;;;;;2.83;65.17;100919.00;7684894;32;40181;-80
2022/01/26 01:39:26;;;;;;;37.20;18.15;;;;;;;2.55;65.70;100917.06;7684676;32;40027;-79
2022/01/26 01:43:43;;;;;;;46.75;21.37;;;;;;;2.71;66.13;100909.72;7684505;32;38764;-80
2022/01/26 01:47:59;;;;;;;38.03;16.77;;;;;;;2.51;66.01;100914.94;7684309;32;37316;-80
2022/01/26 01:52:16;;;;;;;36.63;16.85;;;;;;;2.85;64.96;100906.16;7684585;32;40148;-80
2022/01/26 01:56:32;;;;;;;32.33;16.77;;;;;;;2.76;65.58;100909.97;7684590;32;40475;-79
2022/01/26 02:00:48;;;;;;;45.70;18.73;;;;;;;2.94;64.81;100904.16;7684384;32;38692;-80
2022/01/26 02:05:05;;;;;;;37.72;17.48;;;;;;;2.68;65.73;100910.12;7683997;32;37534;-79
2022/01/26 02:09:21;;;;;;;35.58;19.23;;;;;;;2.91;64.95;100908.06;7684281;32;39256;-80
2022/01/26 02:13:51;;;;;;;37.08;17.85;;;;;;;2.73;64.93;100905.00;7684178;32;40793;-80
2022/01/26 02:18:19;;;;;;;40.47;19.17;;;;;;;2.81;64.06;100897.63;7684096;32;38036;-80
2022/01/26 03:08:29;;;;;;;34.30;17.35;;;;;;;3.13;62.71;100867.63;7686123;32;40748;-80
2022/01/26 03:13:23;;;;;;;34.33;16.92;;;;;;;3.12;62.88;100871.34;7686366;32;37833;-80
2022/01/26 03:18:04;;;;;;;30.95;16.52;;;;;;;3.01;63.64;100865.44;7683554;32;37221;-80
2022/01/26 03:36:11;;;;;;;38.40;16.60;;;;;;;3.14;62.75;100864.72;7686345;32;37387;-79
2022/01/26 03:40:33;;;;;;;32.57;16.97;;;;;;;3.15;62.71;100865.56;7686201;32;39529;-80
2022/01/26 03:44:49;;;;;;;36.83;16.30;;;;;;;3.09;61.97;100861.78;7685978;32;39893;-80
2022/01/26 03:49:07;;;;;;;32.20;16.58;;;;;;;3.12;61.59;100860.56;7685902;32;38712;-80
2022/01/26 03:53:23;;;;;;;32.63;15.95;;;;;;;2.99;61.89;100861.31;7685961;32;37173;-79
2022/01/26 03:57:39;;;;;;;35.55;16.02;;;;;;;3.02;61.75;100860.91;7685977;32;39320;-80
2022/01/26 04:01:55;;;;;;;35.28;16.25;;;;;;;3.00;61.77;100863.81;7685968;32;39735;-80
2022/01/26 04:06:11;;;;;;;32.13;15.38;;;;;;;3.07;61.68;100857.63;7685501;32;38777;-80
2022/01/26 04:10:57;;;;;;;36.20;17.42;;;;;;;2.94;62.91;100858.38;7685423;32;37307;-80
2022/01/26 04:15:25;;;;;;;38.67;18.05;;;;;;;2.84;63.39;100871.34;7685720;32;39230;-80
2022/01/26 04:19:42;;;;;;;37.30;16.58;;;;;;;3.12;62.27;100863.25;7685624;32;40034;-80
2022/01/26 04:28:33;;;;;;;31.70;15.55;;;;;;;2.50;64.58;100871.03;7685665;32;36905;-80
2022/01/26 04:32:49;;;;;;;36.22;16.87;;;;;;;2.88;63.33;100864.50;7685569;32;40185;-80
2022/01/26 04:37:28;;;;;;;37.13;16.87;;;;;;;2.66;64.29;100861.00;7685330;32;40792;-79
2022/01/26 04:41:59;;;;;;;39.67;18.55;;;;;;;2.42;65.09;100858.53;7685367;32;37971;-80
2022/01/26 04:46:15;;;;;;;33.20;17.42;;;;;;;2.43;65.04;100862.03;7685327;32;37928;-79
2022/01/26 04:50:31;;;;;;;38.75;16.65;;;;;;;2.68;64.37;100861.66;7685281;32;39268;-79
2022/01/26 04:54:47;;;;;;;38.50;18.20;;;;;;;1.94;66.51;100857.37;7685106;32;39906;-79
2022/01/26 04:59:04;;;;;;;35.92;17.87;;;;;;;2.17;66.39;100849.16;7684974;32;38005;-79
2022/01/26 05:03:20;;;;;;;31.45;17.12;;;;;;;2.16;66.44;100848.31;7685073;32;38243;-80
2022/01/26 05:07:36;;;;;;;33.78;17.30;;;;;;;2.39;65.21;100841.94;7684966;32;39806;-80
2022/01/26 05:11:54;;;;;;;40.42;18.92;;;;;;;2.62;64.90;100837.19;7685065;32;40474;-79
2022/01/26 05:16:11;;;;;;;33.28;16.65;;;;;;;2.39;65.49;100844.63;7684977;32;37745;-79
2022/01/26 05:20:27;;;;;;;36.22;17.62;;;;;;;2.33;65.70;100856.12;7684921;32;38051;-80
2022/01/26 05:24:43;;;;;;;35.17;17.15;;;;;;;2.76;64.95;100850.75;7683986;32;39505;-79
2022/01/26 05:28:59;;;;;;;40.03;17.15;;;;;;;2.64;65.36;100845.06;7684812;32;40860;-79
2022/01/26 05:33:15;;;;;;;32.85;17.60;;;;;;;2.90;64.39;100857.91;7684835;32;37985;-79
2022/01/26 05:37:32;;;;;;;35.63;16.17;;;;;;;2.97;64.10;100856.09;7684841;32;37157;-80
2022/01/26 05:41:48;;;;;;;36.35;16.67;;;;;;;3.07;63.54;100857.63;7671177;32;40253;-79
2022/01/26 05:46:16;;;;;;;32.53;16.48;;;;;;;3.11;63.69;100857.03;7684635;32;39632;-80
2022/01/26 05:50:38;;;;;;;34.90;17.83;;;;;;;3.37;62.81;100861.75;7684738;32;38794;-80
2022/01/26 05:54:54;;;;;;;35.47;17.60;;;;;;;3.09;63.53;100864.50;7671174;32;36970;-80
2022/01/26 05:59:10;;;;;;;34.67;16.40;;;;;;;3.34;62.91;100872.09;7684601;32;39835;-83
2022/01/26 06:03:28;;;;;;;31.17;17.25;;;;;;;3.32;62.64;100871.47;7684391;32;39774;-81
2022/01/26 06:07:44;;;;;;;37.53;17.95;;;;;;;3.37;62.48;100872.53;7684205;32;38824;-84
2022/01/26 06:12:01;;;;;;;33.03;15.90;;;;;;;3.37;62.48;100880.63;7684366;32;37007;-84
2022/01/26 06:16:17;;;;;;;37.08;17.95;;;;;;;3.49;61.92;100880.09;7684228;32;40027;-83
2022/01/26 06:20:34;;;;;;;29.20;15.77;;;;;;;3.61;61.54;100880.38;7684083;32;40861;-84
2022/01/26 06:24:50;;;;;;;30.62;16.95;;;;;;;3.07;63.58;100888.09;7683800;32;37966;-84
2022/01/26 06:29:06;;;;;;;30.45;16.85;;;;;;;3.38;62.68;100884.16;7684007;32;37094;-83
2022/01/26 06:33:22;;;;;;;33.67;17.23;;;;;;;2.69;64.70;100896.50;7683549;32;40190;-87
2022/01/26 06:37:39;;;;;;;32.60;16.00;;;;;;;2.73;64.82;100895.06;7670068;32;40810;-82
2022/01/26 06:41:55;;;;;;;27.35;14.52;;;;;;;2.59;66.07;100894.09;7683528;32;38694;-82
2022/01/26 06:46:19;;;;;;;32.90;16.42;;;;;;;3.44;63.02;100887.94;7683611;32;37314;-83
2022/01/26 06:50:36;;;;;;;30.67;16.10;;;;;;;3.01;64.89;100903.16;7683553;32;39326;-83
2022/01/26 06:54:52;;;;;;;29.20;16.00;;;;;;;3.32;63.87;100891.19;7683454;32;41008;-84
2022/01/26 06:59:08;;;;;;;29.55;15.05;;;;;;;3.16;63.63;100894.19;7683266;32;37705;-84
2022/01/26 07:03:25;;;;;;;31.50;16.20;;;;;;;3.46;63.43;100893.97;7681602;32;37732;-84
2022/01/26 07:07:42;;;;;;;27.67;15.23;;;;;;;3.67;63.02;100895.75;7668418;32;39047;-84
2022/01/26 07:11:58;;;;;;;29.75;16.58;;;;;;;3.30;63.43;100895.94;7682167;32;40832;-85
2022/01/26 07:25:35;;;;;;;31.67;16.30;;;;;;;3.92;61.99;100898.78;7668754;32;40169;-84
2022/01/26 07:29:51;;;;;;;32.55;14.98;;;;;;;3.51;62.99;100884.25;7681898;32;40730;-84
2022/01/26 07:34:07;;;;;;;32.47;15.15;;;;;;;3.86;62.03;100896.88;7681989;32;38006;-81
2022/01/26 07:38:25;;;;;;;25.73;14.70;;;;;;;4.05;61.73;100892.59;7681587;32;37144;-85
2022/01/26 07:42:41;;;;;;;25.77;13.68;;;;;;;3.85;62.41;100895.22;7681704;32;39420;-83
2022/01/26 07:46:57;;;;;;;25.83;14.45;;;;;;;4.33;60.55;100892.50;7683175;32;40752;-84
2022/01/26 07:51:13;;;;;;;24.10;13.65;;;;;;;4.81;58.89;100897.78;7685207;32;38741;-84
2022/01/26 07:55:31;;;;;;;28.90;15.07;;;;;;;4.78;59.12;100908.16;7685259;32;37443;-84
2022/01/26 07:59:47;;;;;;;23.00;12.82;;;;;;;4.62;58.87;100917.47;7685258;32;39338;-81
2022/01/26 08:04:04;;;;;;;30.92;14.50;;;;;;;4.67;59.05;100906.88;7685104;32;39885;-84
2022/01/26 08:08:27;;;;;;;24.48;13.68;;;;;;;4.83;59.11;100905.66;7684806;32;37587;-83
2022/01/26 08:12:43;;;;;;;28.30;14.35;;;;;;;4.76;59.10;100894.87;7685320;32;37260;-85
2022/01/26 08:17:14;;;;;;;21.52;12.95;;;;;;;5.11;58.29;100902.75;7684790;32;39456;-84
2022/01/26 08:21:30;;;;;;;25.23;12.82;;;;;;;4.94;58.72;100901.53;7685180;32;40883;-83
2022/01/26 08:25:50;;;;;;;25.17;13.57;;;;;;;4.60;59.64;100906.88;7684163;32;38902;-83
2022/01/26 08:30:11;;;;;;;25.33;13.43;;;;;;;4.57;58.96;100901.91;7685065;32;36879;-83
2022/01/26 08:34:27;;;;;;;29.00;15.40;;;;;;;4.64;59.36;100907.28;7684606;32;40177;-84
2022/01/26 08:38:43;;;;;;;26.85;15.10;;;;;;;4.49;59.86;100893.97;7684571;32;40912;-84
2022/01/26 08:42:59;;;;;;;21.23;12.37;;;;;;;4.92;58.85;100900.91;7685307;32;37969;-83
2022/01/26 08:47:15;;;;;;;21.40;12.23;;;;;;;4.99;58.44;100899.03;7684758;32;37187;-84
2022/01/26 08:51:31;;;;;;;25.75;13.45;;;;;;;5.05;58.35;100890.06;7684792;32;39059;-83
2022/01/26 08:55:47;;;;;;;25.83;13.18;;;;;;;5.09;57.92;100894.03;7684551;32;39931;-85
2022/01/26 09:00:08;;;;;;;22.00;12.68;;;;;;;5.06;58.18;100903.38;7683665;32;38001;-85
2022/01/26 09:04:24;;;;;;;23.38;12.63;;;;;;;4.80;59.08;100893.41;7671099;32;36917;-83
2022/01/26 09:08:43;;;;;;;24.90;13.10;;;;;;;5.39;57.69;100899.00;7684468;32;38956;-85
2022/01/26 09:12:59;;;;;;;22.13;12.73;;;;;;;5.33;58.01;100902.53;7684705;32;40030;-84
2022/01/26 09:17:16;;;;;;;21.58;12.70;;;;;;;5.62;56.33;100903.94;7684137;32;38714;-82
2022/01/26 09:21:32;;;;;;;23.33;11.77;;;;;;;5.87;56.27;100890.56;7684308;32;37185;-83
2022/01/26 09:25:48;;;;;;;20.98;11.00;;;;;;;5.97;55.57;100904.50;7684215;32;40003;-81
2022/01/26 09:30:05;;;;;;;23.23;12.88;;;;;;;6.07;54.77;100900.50;7683940;32;40019;-82
2022/01/26 09:34:26;;;;;;;24.08;12.90;;;;;;;5.61;55.97;100905.00;7684160;32;38086;-81
2022/01/26 09:38:42;;;;;;;24.42;12.68;;;;;;;5.87;55.85;100897.84;7684370;32;37105;-81
2022/01/26 09:42:59;;;;;;;23.25;12.52;;;;;;;6.24;54.68;100896.25;7683739;32;39355;-83
2022/01/26 09:47:16;;;;;;;20.98;11.80;;;;;;;5.96;54.76;100889.28;7670251;32;39974;-82
2022/01/26 10:03:47;;;;;;;;;;;;;;;7.56;50.91;100883.78;7792134;32;222975;-84
2022/01/26 10:08:13;;;;;;;20.48;12.30;;;;;;;7.56;50.91;100883.78;7782704;32;40061;-84
2022/01/26 10:17:29;;;;;;;20.23;11.50;;;;;;;6.52;53.59;100876.06;7784135;32;37192;-85
2022/01/26 10:21:50;;;;;;;20.42;11.77;;;;;;;6.75;52.61;100860.06;7784533;32;39063;-84
2022/01/26 10:26:08;;;;;;;23.02;11.55;;;;;;;6.23;54.12;100858.53;7783893;32;39854;-85
2022/01/26 10:30:25;;;;;;;17.87;10.55;;;;;;;4.84;58.30;100864.09;7784507;32;38041;-83
2022/01/26 10:34:41;;;;;;;17.87;10.18;;;;;;;5.32;56.78;100857.63;7784132;32;37032;-84
2022/01/26 10:39:24;;;;;;;22.30;11.43;;;;;;;5.58;56.11;100844.00;7784245;32;39323;-83
2022/01/26 10:43:53;;;;;;;21.60;10.82;;;;;;;5.43;56.73;100844.28;7784044;32;39863;-83
2022/01/26 10:48:20;;;;;;;16.12;9.77;;;;;;;5.47;56.54;100839.28;7783661;32;38059;-83
2022/01/26 10:52:40;;;;;;;18.95;9.98;;;;;;;5.86;55.79;100817.69;7784232;32;37606;-83
2022/01/26 10:56:56;;;;;;;20.60;9.88;;;;;;;5.45;56.76;100833.25;7782275;32;39836;-84
2022/01/26 11:01:12;;;;;;;16.27;9.23;;;;;;;5.71;55.79;100818.81;7781375;32;39912;-83
2022/01/26 11:05:28;;;;;;;21.50;10.02;;;;;;;5.59;55.55;100813.22;7765740;32;37994;-83
2022/01/26 11:09:48;;;;;;;17.73;10.07;;;;;;;5.71;55.36;100820.66;7765978;32;37928;-86
2022/01/26 11:14:13;;;;;;;16.90;9.18;;;;;;;5.27;56.56;100825.78;7764845;32;38934;-82
2022/01/26 11:19:12;;;;;;;18.30;8.88;;;;;;;5.78;55.11;100805.25;7765554;32;39997;-82
2022/01/26 11:23:36;;;;;;;17.12;9.52;;;;;;;5.57;55.77;100804.50;7765584;32;37391;-82
2022/01/26 11:27:53;;;;;;;15.73;8.63;;;;;;;6.30;53.96;100797.91;7765001;32;36067;-84
2022/01/26 11:32:18;;;;;;;16.05;8.05;;;;;;;6.44;53.50;100781.56;7765479;32;39923;-81
2022/01/26 11:36:35;;;;;;;13.25;7.85;;;;;;;7.01;51.68;100787.72;7765449;32;39904;-84
2022/01/26 11:45:35;;;;;;;17.15;8.43;;;;;;;6.63;52.38;100780.56;7765278;32;36979;-83
2022/01/26 11:50:02;;;;;;;16.62;9.45;;;;;;;7.46;50.51;100784.72;7765002;32;39701;-83
2022/01/26 11:54:20;;;;;;;16.70;8.70;;;;;;;7.28;50.62;100776.59;7764831;32;39911;-83
2022/01/26 11:58:46;;;;;;;15.43;8.88;;;;;;;7.44;50.69;100773.25;7765251;32;37744;-84
2022/01/26 12:03:03;;;;;;;15.32;7.95;;;;;;;7.97;49.05;100771.75;7764937;32;37707;-84
2022/01/26 12:07:23;;;;;;;14.87;8.02;;;;;;;7.26;49.21;100773.25;7765636;32;39246;-83
2022/01/26 12:11:39;;;;;;;15.32;8.10;;;;;;;7.77;48.65;100769.31;7764260;32;39703;-83
2022/01/26 12:16:04;;;;;;;16.83;8.10;;;;;;;7.90;47.73;100760.97;7764426;32;38461;-84
2022/01/26 12:38:41;;;;;;;13.35;7.10;;;;;;;7.68;47.69;100748.97;7764308;32;37679;-83
2022/01/26 12:43:05;;;;;;;15.43;7.37;;;;;;;7.16;48.57;100757.53;7765427;32;39090;-82
2022/01/26 12:47:43;;;;;;;19.95;11.35;;;;;;;6.93;49.25;100760.88;7765213;32;41068;-82
2022/01/26 12:52:00;;;;;;;18.17;10.00;;;;;;;7.25;49.04;100755.34;7765704;32;39027;-83
2022/01/26 12:56:16;;;;;;;16.60;10.88;;;;;;;7.05;49.31;100764.50;7769918;32;37470;-82
2022/01/26 13:00:43;;;;;;;22.73;13.10;;;;;;;6.92;49.75;100753.81;7768592;32;39222;-82
2022/01/26 13:05:01;;;;;;;22.60;14.02;;;;;;;6.60;51.04;100748.47;7770235;32;41010;-83
2022/01/26 13:09:27;;;;;;;14.25;8.82;;;;;;;7.18;49.55;100749.16;7764546;32;37868;-82
2022/01/26 13:13:43;;;;;;;21.90;13.80;;;;;;;7.02;49.50;100751.44;7764676;32;36795;-83
2022/01/26 13:18:13;;;;;;;16.58;8.43;;;;;;;7.06;48.97;100749.91;7764639;32;39459;-84
2022/01/26 13:32:46;;;;;;;18.62;8.32;;;;;;;6.28;51.75;100745.84;7757493;32;36692;-71
2022/01/26 13:36:41;;;;;;;17.30;8.18;;;;;;;6.18;54.53;100740.91;7760472;32;39439;-84
2022/01/26 13:50:13;;;;;;;13.30;7.37;;;;;;;6.63;50.36;100739.91;7763724;32;37078;-85
2022/01/26 13:58:47;;;;;;;13.57;7.50;;;;;;;5.68;52.97;100745.34;7764104;32;39655;-85
2022/01/26 14:03:06;;;;;;;14.32;7.60;;;;;;;6.88;50.04;100728.19;7763799;32;38046;-85
2022/01/26 14:07:23;;;;;;;14.95;7.85;;;;;;;8.22;47.22;100728.13;7763950;32;36671;-85
2022/01/26 14:11:39;;;;;;;11.82;6.55;;;;;;;8.83;44.23;100730.72;7763744;32;39724;-84
2022/01/26 14:15:58;;;;;;;14.50;8.07;;;;;;;9.25;43.08;100725.06;7763619;32;40790;-83
2022/01/26 14:20:40;;;;;;;13.43;7.55;;;;;;;9.23;42.56;100729.09;7763502;32;38010;-85
2022/01/26 14:29:33;;;;;;;14.50;7.10;;;;;;;11.97;35.73;100709.34;7763329;32;38845;-85
2022/01/26 14:52:47;;;;;;;13.27;7.97;;;;;;;9.30;41.34;100733.34;7766583;32;40899;-83
2022/01/26 15:50:48;;;;;;;23.08;10.85;;;;;;;5.93;51.12;100761.63;7764696;32;38694;-83
2022/01/26 16:04:29;;;;;;;25.90;11.45;;;;;;;4.30;57.04;100782.22;7765561;32;40800;-82
2022/01/26 17:03:38;;;;;;;28.35;15.07;;;;;;;4.32;56.77;100797.16;7764081;32;38710;-82
2022/01/26 17:26:26;;;;;;;36.45;16.65;;;;;;;4.56;55.51;100810.28;7764851;32;37229;-83
2022/01/26 18:51:57;;;;;;;31.87;16.02;;;;;;;3.69;57.72;100770.47;7766463;32;38735;-83
2022/01/26 18:56:14;;;;;;;32.58;17.60;;;;;;;4.11;56.52;100763.06;7765493;32;37104;-81
2022/01/26 19:00:30;;;;;;;28.35;14.63;;;;;;;3.84;56.85;100756.78;7765098;32;39863;-82
2022/01/26 19:04:48;;;;;;;28.70;14.50;;;;;;;3.54;57.50;100759.00;7766236;32;40436;-82
2022/01/26 19:09:04;;;;;;;30.67;14.48;;;;;;;3.56;57.72;100765.00;7766230;32;38774;-84
2022/01/26 19:13:26;;;;;;;29.67;15.05;;;;;;;3.63;57.16;100773.13;7766277;32;37191;-82
2022/01/26 19:17:49;;;;;;;32.58;15.70;;;;;;;3.67;56.06;100772.50;7750856;32;39270;-83
2022/01/26 19:26:33;;;;;;;29.67;15.20;;;;;;;3.35;57.46;100765.97;7739131;32;38689;-82
2022/01/26 19:41:23;;;;;;;27.85;14.20;;;;;;;3.17;57.54;100778.12;7679044;32;40682;-81
2022/01/26 19:54:25;;;;;;;36.97;17.65;;;;;;;2.96;57.87;100787.09;7750552;32;40018;-80
2022/01/26 19:58:41;;;;;;;35.50;18.42;;;;;;;3.15;57.08;100784.72;7751358;32;39665;-81
2022/01/26 20:03:00;;;;;;;32.00;16.10;;;;;;;2.85;59.28;100784.12;7751283;32;37907;-81
2022/01/26 20:07:24;;;;;;;31.10;16.02;;;;;;;3.04;58.66;100785.28;7749828;32;37119;-81
2022/01/26 20:11:52;;;;;;;33.35;18.20;;;;;;;3.13;57.99;100787.59;7751968;32;39759;-81
2022/01/26 20:16:10;;;;;;;34.17;17.05;;;;;;;3.14;58.62;100789.28;7750496;32;40749;-82
2022/01/26 20:20:27;;;;;;;30.20;16.10;;;;;;;3.18;58.18;100790.53;7750433;32;37964;-81
2022/01/26 20:24:44;;;;;;;33.75;16.65;;;;;;;3.30;56.99;100781.91;7751052;32;36998;-82
2022/01/26 20:29:00;;;;;;;29.40;14.87;;;;;;;3.19;57.29;100785.97;7751173;32;40003;-82
2022/01/26 20:33:17;;;;;;;37.35;17.08;;;;;;;2.88;57.66;100789.94;7751020;32;40860;-81
2022/01/26 20:37:34;;;;;;;33.13;16.77;;;;;;;3.29;57.34;100785.63;7748240;32;37747;-81
2022/01/26 20:41:50;;;;;;;37.28;17.77;;;;;;;3.33;57.55;100787.72;7750678;32;37148;-81
2022/01/26 20:46:09;;;;;;;35.35;16.48;;;;;;;3.08;59.26;100795.44;7749963;32;40484;-82
2022/01/26 20:50:26;;;;;;;28.33;15.65;;;;;;;3.18;58.76;100787.03;7750009;32;39734;-81
2022/01/26 20:54:42;;;;;;;33.03;15.98;;;;;;;3.17;59.08;100793.44;7750321;32;38770;-82
2022/01/26 20:58:59;;;;;;;29.58;15.15;;;;;;;3.17;58.99;100793.44;7749051;32;37060;-79
2022/01/26 21:03:15;;;;;;;30.67;14.23;;;;;;;2.95;59.93;100785.44;7748877;32;39212;-81
2022/01/26 21:07:32;;;;;;;27.75;14.43;;;;;;;3.16;59.99;100776.44;7751309;32;39547;-80
2022/01/26 21:11:49;;;;;;;28.38;13.90;;;;;;;2.89;61.04;100775.44;7750124;32;38703;-81
2022/01/26 21:16:06;;;;;;;28.60;14.85;;;;;;;3.38;59.35;100757.47;7749830;32;37147;-82
2022/01/26 21:20:22;;;;;;;28.10;13.45;;;;;;;2.99;60.42;100764.31;7751303;32;39297;-82
2022/01/26 21:24:40;;;;;;;27.55;14.35;;;;;;;2.75;61.83;100760.22;7749115;32;39673;-81
2022/01/26 21:28:56;;;;;;;28.05;13.90;;;;;;;2.80;61.29;100750.53;7750482;32;38780;-82
2022/01/26 21:33:13;;;;;;;24.23;12.52;;;;;;;2.54;62.29;100751.16;7749931;32;37105;-81
2022/01/26 21:37:30;;;;;;;23.75;12.10;;;;;;;2.72;61.17;100747.16;7749150;32;39451;-81
2022/01/26 21:41:46;;;;;;;25.80;13.18;;;;;;;2.98;60.51;100751.87;7749268;32;40541;-82
2022/01/26 21:46:03;;;;;;;25.30;13.18;;;;;;;2.80;61.32;100755.91;7754374;32;37897;-82
2022/01/26 21:50:19;;;;;;;24.80;12.00;;;;;;;2.87;61.02;100749.75;7762802;32;36890;-82
2022/01/26 21:54:36;;;;;;;25.52;11.88;;;;;;;3.14;60.07;100743.47;7762509;32;39205;-81
2022/01/26 21:58:52;;;;;;;22.23;12.43;;;;;;;2.89;60.83;100743.13;7763917;32;39933;-83
2022/01/26 22:03:09;;;;;;;25.75;13.43;;;;;;;2.24;63.03;100735.19;7763278;32;37923;-82
2022/01/26 22:07:25;;;;;;;25.75;12.18;;;;;;;2.40;62.64;100734.09;7763549;32;37162;-82
2022/01/26 22:11:41;;;;;;;27.67;13.10;;;;;;;2.51;62.36;100735.41;7763467;32;39239;-82
2022/01/26 22:15:58;;;;;;;23.15;11.88;;;;;;;2.27;62.77;100727.75;7763189;32;39888;-82
2022/01/26 22:20:14;;;;;;;24.17;12.48;;;;;;;2.62;62.70;100734.03;7763162;32;37739;-82
2022/01/26 22:24:30;;;;;;;25.23;13.02;;;;;;;2.52;63.33;100730.84;7763122;32;37901;-82
2022/01/26 22:28:49;;;;;;;29.27;13.45;;;;;;;2.39;63.82;100723.50;7763019;32;39937;-82
2022/01/26 22:33:06;;;;;;;26.90;14.15;;;;;;;2.63;63.14;100717.69;7762804;32;39921;-82
2022/01/26 22:37:26;;;;;;;28.80;13.32;;;;;;;2.81;62.13;100724.41;7762681;32;38002;-83
2022/01/26 22:41:45;;;;;;;28.85;13.35;;;;;;;3.18;61.10;100711.56;7762734;32;37200;-83
2022/01/26 22:46:01;;;;;;;25.27;12.57;;;;;;;3.04;61.59;100704.47;7761518;32;39732;-82
2022/01/26 22:50:18;;;;;;;24.98;12.95;;;;;;;3.13;61.28;100712.16;7761234;32;39866;-82
2022/01/26 22:54:36;;;;;;;27.33;13.35;;;;;;;3.13;61.33;100706.78;7762192;32;37992;-82
2022/01/26 22:59:12;;;;;;;29.00;14.10;;;;;;;3.24;61.08;100702.66;7764172;32;37531;-82
2022/01/26 23:03:29;;;;;;;26.50;13.82;;;;;;;3.29;60.92;100699.38;7766208;32;39271;-82
2022/01/26 23:07:47;;;;;;;32.05;13.40;;;;;;;2.43;63.55;100700.53;7766397;32;39934;-83
2022/01/26 23:12:03;;;;;;;24.70;13.48;;;;;;;2.94;61.98;100686.78;7766376;32;38482;-82
2022/01/26 23:16:20;;;;;;;27.67;14.48;;;;;;;2.90;62.09;100677.44;7766432;32;37910;-82
2022/01/26 23:20:57;;;;;;;26.48;13.85;;;;;;;3.32;60.64;100693.59;7766059;32;40383;-83
2022/01/26 23:30:07;;;;;;;24.45;13.23;;;;;;;3.54;60.52;100686.19;7766124;32;38030;-83
2022/01/26 23:39:51;;;;;;;24.33;12.73;;;;;;;3.29;61.25;100696.69;7766032;32;39992;-83
